METAR Data
IDs: Format: Raw Decoded Include TAF

Data at: 1152 UTC 23 Sep 2018

KOXI 231135Z AUTO 00000KT M1/4SM VV000 05/03 A3019 RMK AO1
KOXI 231115Z AUTO 00000KT 1/2SM VV005 04/03 A3019 RMK AO1
KOXI 231055Z AUTO 00000KT 1/2SM VV005 05/04 A3018 RMK AO1
KOXI 231035Z AUTO 00000KT 1/4SM VV002 04/03 A3018 RMK AO1
KOXI 231015Z AUTO 00000KT 3/4SM VV005 05/04 A3018 RMK AO1
KOXI 230955Z AUTO 01003KT 2 1/2SM CLR 05/04 A3018 RMK AO1
KOXI 230935Z AUTO 00000KT 2SM CLR 05/05 A3018 RMK AO1 VIS 1V5
KOXI 230915Z AUTO 00000KT 3SM CLR 05/05 A3018 RMK AO1
KOXI 230850Z AUTO 02003KT 5SM CLR 06/05 A3018 RMK AO1
KOXI 230835Z AUTO 02003KT 4SM CLR 05/05 A3018 RMK AO1
KOXI 230815Z AUTO 03003KT 4SM CLR 06/05 A3018 RMK AO1
KOXI 230755Z AUTO 00000KT 7SM CLR 05/04 A3018 RMK AO1
KOXI 230735Z AUTO 00000KT 10SM CLR 05/05 A3018 RMK AO1
KOXI 230715Z AUTO 00000KT 10SM CLR 06/05 A3018 RMK AO1
KOXI 230655Z AUTO 00000KT 10SM CLR 06/05 A3018 RMK AO1
KOXI 230635Z AUTO 00000KT 10SM CLR 07/06 A3018 RMK AO1
KOXI 230615Z AUTO 09004KT 10SM CLR 07/06 A3018 RMK AO1
KOXI 230555Z AUTO 10003KT 10SM CLR 07/06 A3018 RMK AO1
KOXI 230535Z AUTO 00000KT 10SM CLR 06/05 A3019 RMK AO1
KOXI 230515Z AUTO 00000KT 7SM CLR 06/05 A3019 RMK AO1
KOXI 230455Z AUTO 00000KT 3SM CLR 06/05 A3020 RMK AO1
KOXI 230435Z AUTO 00000KT 10SM CLR 07/06 A3020 RMK AO1
KOXI 230415Z AUTO 00000KT 10SM CLR 06/05 A3020 RMK AO1
KOXI 230355Z AUTO 00000KT 10SM CLR 07/06 A3021 RMK AO1
KOXI 230335Z AUTO 00000KT 10SM CLR 07/06 A3022 RMK AO1
KOXI 230315Z AUTO 00000KT 10SM CLR 07/06 A3022 RMK AO1
KOXI 230255Z AUTO 00000KT 10SM CLR 08/07 A3022 RMK AO1
KOXI 230235Z AUTO 00000KT 10SM CLR 07/06 A3022 RMK AO1
KOXI 230215Z AUTO 10003KT 10SM CLR 08/06 A3022 RMK AO1
KOXI 230155Z AUTO 10003KT 10SM CLR 10/07 A3021 RMK AO1
KOXI 230135Z AUTO 00000KT 10SM CLR 10/07 A3021 RMK AO1
KOXI 230115Z AUTO 08003KT 10SM CLR 09/07 A3021 RMK AO1
KOXI 230055Z AUTO 08003KT 10SM CLR 10/07 A3021 RMK AO1
KOXI 230035Z AUTO 09003KT 10SM CLR 11/07 A3021 RMK AO1
KOXI 230015Z AUTO 08003KT 10SM CLR 12/07 A3020 RMK AO1
KOXI 222355Z AUTO 00000KT 10SM CLR 13/07 A3020 RMK AO1
KOXI 222335Z AUTO 08003KT 10SM CLR 15/07 A3020 RMK AO1
KOXI 222315Z AUTO 08004KT 10SM CLR 16/07 A3021 RMK AO1
KOXI 222255Z AUTO 06005KT 10SM CLR 16/07 A3021 RMK AO1
KOXI 222235Z AUTO 07005KT 10SM CLR 17/07 A3021 RMK AO1
KOXI 222215Z AUTO 06004KT 10SM CLR 17/07 A3022 RMK AO1
KOXI 222155Z AUTO 09007KT 10SM CLR 17/07 A3022 RMK AO1
KOXI 222135Z AUTO 08007KT 10SM CLR 17/07 A3022 RMK AO1
KOXI 222115Z AUTO 12007KT 10SM CLR 18/07 A3022 RMK AO1
KOXI 222055Z AUTO 12005KT 10SM CLR 17/07 A3022 RMK AO1
KOXI 222035Z AUTO 05005KT 10SM CLR 17/07 A3022 RMK AO1
KOXI 222015Z AUTO 11003KT 7SM CLR 17/07 A3023 RMK AO1
KOXI 221955Z AUTO 11005KT 10SM CLR 17/07 A3025 RMK AO1
KOXI 221930Z AUTO 08005KT 10SM CLR 17/07 A3024 RMK AO1
KOXI 221915Z AUTO 09005KT 10SM CLR 16/07 A3025 RMK AO1
KOXI 221855Z AUTO 08005KT 10SM CLR 16/07 A3026 RMK AO1
KOXI 221835Z AUTO 09003KT 10SM CLR 16/07 A3027 RMK AO1
KOXI 221815Z AUTO 00000KT 10SM CLR 15/06 A3028 RMK AO1
KOXI 221755Z AUTO 08007KT 10SM CLR 16/07 A3029 RMK AO1
KOXI 221735Z AUTO 09007KT 10SM CLR 15/06 A3030 RMK AO1
KOXI 221715Z AUTO 11006KT 10SM CLR 15/06 A3030 RMK AO1
KOXI 221655Z AUTO 08005KT 10SM CLR 14/06 A3031 RMK AO1
KOXI 221635Z AUTO 08006KT 10SM CLR 14/06 A3031 RMK AO1
KOXI 221615Z AUTO 07008KT 10SM CLR 15/07 A3032 RMK AO1
KOXI 221555Z AUTO 08007KT 10SM CLR 13/06 A3032 RMK AO1
KOXI 221535Z AUTO 07008KT 10SM CLR 13/06 A3033 RMK AO1
KOXI 221515Z AUTO 07010KT 10SM CLR 12/06 A3032 RMK AO1
KOXI 221455Z AUTO 07011KT 10SM CLR 13/06 A3032 RMK AO1
KOXI 221435Z AUTO 07009KT 10SM CLR 12/06 A3033 RMK AO1
KOXI 221415Z AUTO 07009G15KT 10SM CLR 12/06 A3033 RMK AO1
KOXI 221355Z AUTO 06007KT 10SM CLR 11/06 A3032 RMK AO1
KOXI 221335Z AUTO 04006KT 10SM CLR 11/06 A3032 RMK AO1
KOXI 221315Z AUTO 03005KT 10SM CLR 10/06 A3032 RMK AO1
KOXI 221255Z AUTO 03006KT 10SM CLR 10/06 A3032 RMK AO1
KOXI 221235Z AUTO 04004KT 10SM CLR 10/06 A3032 RMK AO1
KOXI 221215Z AUTO 04003KT 10SM CLR 08/06 A3032 RMK AO1
KOXI 221155Z AUTO 03004KT 10SM CLR 08/05 A3031 RMK AO1
KOXI 221135Z AUTO 04005KT 10SM CLR 09/05 A3030 RMK AO1
KOXI 221115Z AUTO 04005KT 10SM CLR 10/05 A3030 RMK AO1
KOXI 221055Z AUTO 03006KT 10SM CLR 10/05 A3029 RMK AO1
KOXI 221035Z AUTO 03008KT 10SM CLR 10/05 A3028 RMK AO1
KOXI 221015Z AUTO 03006KT 10SM CLR 10/05 A3028 RMK AO1
KOXI 220955Z AUTO 04006KT 10SM CLR 11/05 A3028 RMK AO1
KOXI 220935Z AUTO 04006KT 10SM CLR 11/06 A3027 RMK AO1
KOXI 220915Z AUTO 04007KT 10SM CLR 11/06 A3027 RMK AO1
KOXI 220855Z AUTO 05005KT 10SM CLR 11/06 A3027 RMK AO1
KOXI 220835Z AUTO 04006KT 10SM CLR 12/06 A3027 RMK AO1
KOXI 220815Z AUTO 04008KT 10SM CLR 12/06 A3025 RMK AO1
KOXI 220755Z AUTO 04008KT 10SM CLR 12/07 A3025 RMK AO1
KOXI 220735Z AUTO 03008KT 10SM CLR 13/07 A3025 RMK AO1
KOXI 220715Z AUTO 02012G18KT 10SM SCT038 13/07 A3026 RMK AO1
KOXI 220655Z AUTO 03010KT 10SM SCT038 12/08 A3025 RMK AO1
KOXI 220635Z AUTO 01005KT 10SM CLR 13/08 A3025 RMK AO1
KOXI 220615Z AUTO 36007KT 10SM CLR 13/08 A3024 RMK AO1
KOXI 220555Z AUTO 36007KT 10SM CLR 13/08 A3024 RMK AO1
KOXI 220535Z AUTO 36006KT 10SM CLR 13/08 A3023 RMK AO1
KOXI 220515Z AUTO 36009KT 10SM CLR 14/08 A3023 RMK AO1
KOXI 220455Z AUTO 01011G15KT 10SM CLR 15/08 A3022 RMK AO1
KOXI 220435Z AUTO 01010G15KT 10SM CLR 15/09 A3022 RMK AO1
KOXI 220415Z AUTO 36012KT 10SM CLR 15/09 A3021 RMK AO1
KOXI 220355Z AUTO 35008KT 10SM CLR 15/09 A3021 RMK AO1
KOXI 220335Z AUTO 35010KT 10SM CLR 15/09 A3021 RMK AO1
KOXI 220315Z AUTO 34007KT 10SM CLR 15/09 A3021 RMK AO1
KOXI 220255Z AUTO 34006KT 10SM CLR 15/09 A3020 RMK AO1
KOXI 220235Z AUTO 34006KT 10SM CLR 15/09 A3020 RMK AO1
KOXI 220215Z AUTO 35008KT 10SM CLR 16/09 A3019 RMK AO1
KOXI 220155Z AUTO 34009G16KT 10SM CLR 16/09 A3018 RMK AO1
KOXI 220135Z AUTO 35013G16KT 10SM CLR 17/10 A3017 RMK AO1
KOXI 220115Z AUTO 35012G18KT 10SM CLR 17/10 A3015 RMK AO1
KOXI 220055Z AUTO 35009G15KT 10SM CLR 17/11 A3013 RMK AO1
KOXI 220035Z AUTO 35009KT 10SM CLR 17/11 A3012 RMK AO1
KOXI 220015Z AUTO 34010KT 10SM CLR 18/11 A3009 RMK AO1
KOXI 212355Z AUTO 33007G15KT 10SM CLR 18/11 A3008 RMK AO1